Kezdőlap
METAR-TAF:

METAR-TAF

Repülőterek :

Lanzarote, Spanyolország

földrajzi szélesség: 28-57N, földrajzi hosszúság: 013-36W, magasság: 14 m

Jelenlegi meteorológiai megfigyelések

A jelentés 43 perccel ezelõtt készült, 07:00 UTC
Nyugat-északnyugati szél 5 kt
Hőmérséklet 17°C
Páratartalom 82%
Légköri nyomás 1016 hPa
Látótávolság 10 km, vagy több
Szórványos felhőzet 3000 lábon

METAR: GCRR 050700Z 30005KT 9999 SCT030 17/14 Q1016

Idő: 07:43 (07:43 UTC)

Előrejelzés

A jelentés 5 órával és 43 perccel ezelõtt készült, 02:00 UTC
Az előrejelzés 05-én 03 óra UTC és 06-én 03 óra UTC között érvényes
Északnyugati szél 5 kt
Látótávolság 10 km, vagy több
Szórványos felhőzet 3000 lábon
Valószínűség 40% :
05-én 11 óra UTC és 05-én 15 óra UTC között ideiglenes
Dél-délnyugati szél 10 kt

TAF: GCRR 050200Z 0503/0603 31005KT 9999 SCT030 TX25/0514Z TN16/0506Z PROB40 TEMPO 0511/0515 21010KT

Meteorológiai megfigyelések és előrejelzések több, mint 4000 repülőtéren (METAR és TAF jelentéseket).

A térképen piros és sárga pontok jelzik az elérhető meteorológiai állomásokat.

Mozgassa az egeret a pont fölött, hogy megjelenjen az állomás neve.

Azután kattintson az időjárási megfigyelések és előrejelzések megtekintéséhez.

A térkép megváltoztatása: kattintson a fekete keresztel jelölt zöld gombra ráközelítéshez, a vonallal jelölt zöld gombra távolításhoz, vagy a zöld nyilakra a szomszédos térképek eléréséhez.


METAR-TAF: